Detall de PIREP

Printer-friendly versionPDF version

[2014/06/05 11:00:00]
Flight IATA:CT2213
Pilot Number:042
Company ICAO:CAT
Aircraft Type:A320/E
PAX:85
Departing Airport: LFST
Destination Airport: LFMP
Alternate Airport:LEGE
Online: VATSIM
Route:POGOL R11 EPL G21 MOU A27 SIJAN
Flight Level:F250
No Slew and time accel
No pause
Crash detect
Detect pilot in Cockpit between each 30 and 45 minutes
11:00 Zero fuel Weight: 124280 Lbs, Fuel Weight: 32169 Lbs
11:00 VATSIM:LFST 051030Z AUTO 22004KT 110V280 9999 BKN047 BKN054 BKN064 19/07 Q1016
11:00 VATSIM:LFMP 051021Z 12008KT 090V170 9999 FEW050 21/07 Q1015 NOSIG
11:10 Parking Brakes off
11:15 Take-off
11:15 Take off Weight: 155622 Lbs
11:15 Wind: 269º @ 008 Knots Heading: 228º
11:15 POS N48º 31´ 54´´ E007º 37´ 01´´
11:15 Flaps:2 at 147 Knots
11:15 Gear Up: 145 Knots
11:15 Flaps:0 at 162 Knots
11:24 TOC
11:24 Fuel Weight: 28990 Lb
11:30 Wind:270º@025 Knots Heading: 234º Ground Speed: 454 Knots Altitude 26919 ft
11:45 Wind:270º@025 Knots Heading: 224º Ground Speed: 443 Knots Altitude 24986 ft
12:00 Wind:270º@025 Knots Heading: 185º Ground Speed: 459 Knots Altitude 24986 ft
12:08 TOD
12:08 Fuel Weight: 23412 Lb
12:15 Wind:270º@023 Knots Heading: 190º Ground Speed: 299 Knots Altitude 15633 ft
12:21 Flaps:1 at 228 Knots
12:25 Flaps:3 at 181 Knots
12:26 Gear Down: 180 Knots
12:26 Flaps:4 at 180 Knots
12:27 Flaps:5 at 167 Knots
12:30 Wind:269º@008 Knots Heading: 325º Ground Speed: 158 Knots Altitude 672 ft
12:30 TouchDown:Rate -239 ft/min Speed: 151 Knots
12:30 VATSIM:LFMP 051200Z 11011KT 080V140 9999 FEW050 22/07 Q1014 NOSIG
12:30 Land
12:30 Wind:269º@008 Knots
12:30 Heading: 327º
12:30 Flight Duration: 01:15
12:30 Landing Weight: 146491 Lbs
12:30 POS N42º 44´ 46´´ E002º 52´ 06´´
12:33 Parking brakes on
12:33 Block to Block Duration: 01:23
12:33 Final Fuel: 21880 Lbls
12:33 Spent Fuel: 10288 Lbls
12:33 Flight Length: 470 NM
12:33 TOD Land Length: 96 NM

Exportar CSV

Powered by Drupal - Modified by Danger4k